METAR Data
IDs: Format: Raw Decoded Include TAF

Data at: 1033 UTC 18 Jan 2022

KGFK 181000Z AUTO 16015KT 9SM FEW015 SCT060 OVC100 M02/M04 A2944 RMK AO2 SNE0955 PRESFR P0000 T10221039 $
KGFK 180953Z AUTO 15013KT 9SM -SN SCT014 BKN023 OVC110 M02/M04 A2945 RMK AO2 SNB37 PRESFR SLP985 P0000 T10221039 $
KGFK 180936Z AUTO 15013KT 9SM BKN014 BKN029 OVC060 M02/M04 A2947 RMK AO2 PRESFR T10221039 $
KGFK 180911Z AUTO 15011KT 10SM BKN015 OVC065 M02/M04 A2949 RMK AO2 T10221039 $
KGFK 180853Z AUTO 13008KT 10SM FEW015 OVC070 M03/M04 A2950 RMK AO2 SLP004 T10331044 56045 $
KGFK 180753Z AUTO 11009KT 10SM OVC075 M04/M05 A2953 RMK AO2 SLP015 T10391050 $
KGFK 180653Z AUTO 00000KT 10SM OVC038 M07/M07 A2960 RMK AO2 SLP039 T10671072 $
KGFK 180553Z AUTO 12003KT 10SM SCT043 OVC070 M06/M07 A2964 RMK AO2 SLP050 4/009 60000 T10611072 11061 21083 410331089 56038 $
KGFK 180453Z 04003KT 10SM BKN060 OVC080 M07/M08 A2966 RMK AO2 SLP059 T10721083 $
KGFK 180353Z 00000KT 9SM SCT020 OVC075 M08/M09 A2970 RMK AO2 SNE49 PRESFR SLP073 P0000 T10781094 $
KGFK 180253Z 35004KT 8SM -SN OVC080 M08/M09 A2975 RMK AO2 SLP090 P0000 60000 T10831094 58018 $
KGFK 180153Z 03004KT 7SM -SN SCT060 OVC075 M08/M09 A2977 RMK AO2 SLP099 P0000 T10831094 $
KGFK 180053Z 03008KT 5SM -SN BR BKN055 OVC075 M08/M09 A2979 RMK AO2 SLP104 P0000 T10781089 $
KGFK 172353Z 01007KT 6SM -SN BR BKN055 OVC080 M07/M08 A2980 RMK AO2 SNB2259 SLP108 4/009 P0000 60000 T10721083 11039 21072 56001 $
KGFK 172300Z 01008KT 5SM -SN BR BKN040 OVC060 M07/M08 A2980 RMK AO2 SNB2259 P0000 T10671083 $
KGFK 172259Z 01008KT 5SM -SN BR BKN040 OVC060 M07/M08 A2980 RMK AO2 SNB59 P0000 T10671083 $
KGFK 172253Z 02007KT 10SM BKN040 OVC065 M07/M08 A2980 RMK AO2 SLP108 T10671083 $
KGFK 172153Z 02009KT 10SM SCT008 BKN060 OVC100 M07/M08 A2980 RMK AO2 SNE06 SLP106 P0000 T10671083 $
KGFK 172117Z 01007KT 10SM SCT008 BKN070 OVC100 M06/M08 A2982 RMK AO2 SNE06 P0000 T10611078 $
KGFK 172106Z 36008KT 9SM SCT070 OVC100 M06/M08 A2982 RMK AO2 SNE06 P0000 T10611078 $
KGFK 172053Z 01009KT 9SM -SN SCT008 BKN070 OVC095 M06/M08 A2981 RMK AO2 SLP110 P0000 60000 T10611078 58004 $
KGFK 171953Z 35012KT 9SM -SN BKN008 OVC027 M06/M07 A2980 RMK AO2 SLP108 P0000 T10561072 $
KGFK 171853Z 01011KT 9SM -SN FEW008 SCT041 OVC080 M04/M06 A2983 RMK AO2 SNB50 SLP117 P0000 T10441061 $
KGFK 171839Z 02011KT 10SM FEW008 BKN041 OVC085 M04/M06 A2981 RMK AO2 T10391056 $
KGFK 171753Z 01011KT 10SM BKN023 OVC044 M04/M06 A2982 RMK AO2 SLP114 4/009 933023 T10391056 11033 21083 53006 $
KGFK 171653Z 36010KT 10SM BKN017 OVC060 M03/M05 A2982 RMK AO2 SLP114 T10331050 $
KGFK 171553Z 30003KT 10SM BKN016 OVC055 M04/M06 A2980 RMK AO2 SLP107 T10441061 $
KGFK 171453Z 31005KT 10SM BKN013 OVC060 M05/M07 A2980 RMK AO2 SLP108 T10501067 51008 $
KGFK 171446Z 31004KT 10SM BKN011 OVC060 M06/M07 A2980 RMK AO2 T10561067 $
KGFK 171353Z 31004KT 10SM BKN055 BKN120 M07/M08 A2979 RMK AO2 SLP105 T10671078 $
KGFK 171253Z 27007KT 10SM SCT120 BKN140 M07/M08 A2979 RMK AO2 SLP105 T10721083 $
KGFK 171153Z 27003KT 10SM FEW055 OVC120 M07/M07 A2978 RMK AO2 SLP099 4/009 70004 T10671072 11039 21089 55008 $
KGFK 171053Z AUTO 23004KT 10SM CLR M06/M07 A2977 RMK AO2 SLP096 T10611067 $
KGFK 170953Z AUTO 25003KT 10SM BKN055 M04/M06 A2979 RMK AO2 SLP102 T10391056 $
KGFK 170853Z AUTO 14004KT 10SM SCT050 M08/M08 A2980 RMK AO2 SLP107 T10781083 56016 $
KGFK 170753Z AUTO 21008KT 10SM FEW027 OVC060 M07/M08 A2980 RMK AO2 SLP108 T10671078 $
KGFK 170653Z AUTO 19010KT 10SM OVC060 M08/M09 A2983 RMK AO2 SLP117 T10781089 $
KGFK 170553Z AUTO 19011KT 10SM FEW060 M09/M10 A2985 RMK AO2 SLP123 4/009 T10891100 11067 21089 410061089 58029 $
KGFK 170453Z 18010KT 10SM FEW029 M08/M09 A2988 RMK AO2 SLP132 T10781094 $
KGFK 170353Z 18006KT 10SM OVC029 M07/M09 A2991 RMK AO2 SLP142 T10721089 $
KGFK 170253Z 20005KT 10SM OVC029 M07/M09 A2993 RMK AO2 SLP151 T10721089 58006 $
KGFK 170229Z 19003KT 10SM OVC029 M07/M09 A2994 RMK AO2 T10721089 $
KGFK 170153Z 00000KT 10SM OVC032 M07/M09 A2994 RMK AO2 SLP154 T10721089 /
KGFK 170053Z 36003KT 10SM OVC031 M07/M09 A2994 RMK AO2 SLP154 T10721094 $
KGFK 162353Z 33007KT 10SM OVC032 M07/M09 A2995 RMK AO2 SLP158 4/009 T10671094 11033 21072 51020 $
KGFK 162253Z 36009KT 10SM OVC032 M07/M09 A2995 RMK AO2 SLP156 T10671089 $